createdAt,value
2022-08-27T00:00:22.271Z,1013.19
2022-08-27T00:01:21.911Z,1013.22
2022-08-27T00:02:21.925Z,1013.20
2022-08-27T00:03:21.826Z,1013.21
2022-08-27T00:04:21.902Z,1013.20
2022-08-27T00:05:21.736Z,1013.22
2022-08-27T00:06:21.696Z,1013.25
2022-08-27T00:07:21.651Z,1013.25
2022-08-27T00:08:21.633Z,1013.25
2022-08-27T00:09:26.773Z,1013.26
2022-08-27T00:10:21.594Z,1013.27
2022-08-27T00:11:21.476Z,1013.23
2022-08-27T00:12:21.435Z,1013.23
2022-08-27T00:13:21.390Z,1013.20
2022-08-27T00:15:21.404Z,1013.14
2022-08-27T00:16:21.368Z,1013.17
2022-08-27T00:17:21.216Z,1013.20
2022-08-27T00:18:22.765Z,1013.21
2022-08-27T00:19:21.131Z,1013.17
2022-08-27T00:20:21.084Z,1013.22
2022-08-27T00:21:21.043Z,1013.20
2022-08-27T00:22:20.997Z,1013.19
2022-08-27T00:23:20.954Z,1013.19
2022-08-27T00:24:20.915Z,1013.16
2022-08-27T00:25:20.871Z,1013.19
2022-08-27T00:26:20.822Z,1013.18
2022-08-27T00:27:20.779Z,1013.16
2022-08-27T00:28:20.833Z,1013.17
2022-08-27T00:29:20.696Z,1013.15
2022-08-27T00:30:20.669Z,1013.15
2022-08-27T00:31:23.634Z,1013.15
2022-08-27T00:32:20.561Z,1013.15
2022-08-27T00:33:20.521Z,1013.16
2022-08-27T00:34:20.475Z,1013.16
2022-08-27T00:35:20.437Z,1013.11
2022-08-27T00:36:20.391Z,1013.12
2022-08-27T00:37:20.385Z,1013.12
2022-08-27T00:38:20.302Z,1013.13
2022-08-27T00:39:20.259Z,1013.12
2022-08-27T00:40:20.287Z,1013.09
2022-08-27T00:41:20.171Z,1013.14
2022-08-27T00:42:20.128Z,1013.13
2022-08-27T00:43:20.082Z,1013.17
2022-08-27T00:44:20.043Z,1013.21
2022-08-27T00:45:20.035Z,1013.20
2022-08-27T00:46:19.951Z,1013.26
2022-08-27T00:47:19.914Z,1013.22
2022-08-27T00:48:20.180Z,1013.21
2022-08-27T00:49:19.821Z,1013.19
2022-08-27T00:50:19.777Z,1013.21
2022-08-27T00:51:19.734Z,1013.15
2022-08-27T00:52:19.691Z,1013.20
2022-08-27T00:53:19.647Z,1013.20
2022-08-27T00:54:19.605Z,1013.20
2022-08-27T00:55:19.564Z,1013.21
2022-08-27T00:56:19.515Z,1013.20
2022-08-27T00:57:19.473Z,1013.18
2022-08-27T00:58:19.427Z,1013.20
2022-08-27T00:59:19.393Z,1013.22
2022-08-27T01:00:19.342Z,1013.22
2022-08-27T01:01:19.392Z,1013.23
2022-08-27T01:02:19.386Z,1013.20
2022-08-27T01:03:19.213Z,1013.22
2022-08-27T01:04:19.168Z,1013.21
2022-08-27T01:05:19.124Z,1013.24
2022-08-27T01:06:19.080Z,1013.27
2022-08-27T01:07:19.038Z,1013.23
2022-08-27T01:08:18.995Z,1013.22
2022-08-27T01:09:18.951Z,1013.20
2022-08-27T01:10:18.908Z,1013.16
2022-08-27T01:11:18.862Z,1013.19
2022-08-27T01:12:18.817Z,1013.19
2022-08-27T01:13:18.776Z,1013.19
2022-08-27T01:14:18.732Z,1013.20
2022-08-27T01:15:20.214Z,1013.15
2022-08-27T01:16:18.686Z,1013.14
2022-08-27T01:17:18.602Z,1013.17
2022-08-27T01:18:18.556Z,1013.14
2022-08-27T01:19:18.514Z,1013.15
2022-08-27T01:20:18.471Z,1013.08
2022-08-27T01:21:18.426Z,1013.14
2022-08-27T01:22:19.065Z,1013.14
2022-08-27T01:23:18.341Z,1013.14
2022-08-27T01:24:18.295Z,1013.15
2022-08-27T01:25:18.252Z,1013.17
2022-08-27T01:26:18.208Z,1013.15
2022-08-27T01:27:18.168Z,1013.17
2022-08-27T01:28:18.121Z,1013.14
2022-08-27T01:29:18.080Z,1013.15
2022-08-27T01:30:18.034Z,1013.17
2022-08-27T01:31:18.025Z,1013.13
2022-08-27T01:32:17.947Z,1013.15
2022-08-27T01:33:17.906Z,1013.14
2022-08-27T01:34:17.862Z,1013.13
2022-08-27T01:35:17.820Z,1013.13
2022-08-27T01:36:17.774Z,1013.13
2022-08-27T01:37:23.683Z,1013.15
2022-08-27T01:38:30.348Z,1013.11
2022-08-27T01:39:17.642Z,1013.14
2022-08-27T01:40:17.640Z,1013.11
2022-08-27T01:41:17.555Z,1013.09
2022-08-27T01:42:17.512Z,1013.09
2022-08-27T01:43:17.468Z,1013.11
2022-08-27T01:44:20.769Z,1013.11
2022-08-27T01:45:17.381Z,1013.08
2022-08-27T01:46:17.367Z,1013.12
2022-08-27T01:47:17.296Z,1013.10
2022-08-27T01:48:17.254Z,1013.11
2022-08-27T01:49:17.207Z,1013.16
2022-08-27T01:50:17.163Z,1013.15
2022-08-27T01:51:17.119Z,1013.14
2022-08-27T01:52:17.078Z,1013.14
2022-08-27T01:53:17.032Z,1013.15
2022-08-27T01:54:16.988Z,1013.13
2022-08-27T01:55:16.947Z,1013.11
2022-08-27T01:56:16.899Z,1013.12
2022-08-27T01:57:16.858Z,1013.07
2022-08-27T01:58:16.817Z,1013.11
2022-08-27T01:59:16.771Z,1013.06
2022-08-27T02:00:16.726Z,1013.04
2022-08-27T02:01:16.831Z,1013.05
2022-08-27T02:02:16.727Z,1013.09
2022-08-27T02:03:16.596Z,1013.05
2022-08-27T02:04:16.553Z,1013.05
2022-08-27T02:05:16.509Z,1013.09
2022-08-27T02:06:16.462Z,1013.07
2022-08-27T02:07:16.423Z,1013.05
2022-08-27T02:08:16.377Z,1012.99
2022-08-27T02:09:16.335Z,1013.02
2022-08-27T02:10:16.289Z,1013.02
2022-08-27T02:11:16.248Z,1013.04
2022-08-27T02:12:16.205Z,1013.00
2022-08-27T02:13:16.161Z,1013.00
2022-08-27T02:14:16.113Z,1012.98
2022-08-27T02:15:16.072Z,1013.00
2022-08-27T02:16:16.060Z,1012.99
2022-08-27T02:17:15.984Z,1013.01
2022-08-27T02:18:15.940Z,1013.02
2022-08-27T02:19:15.899Z,1013.01
2022-08-27T02:20:15.853Z,1013.02
2022-08-27T02:21:15.811Z,1012.98
2022-08-27T02:22:15.766Z,1012.99
2022-08-27T02:23:15.726Z,1012.96
2022-08-27T02:24:15.680Z,1012.99
2022-08-27T02:25:15.639Z,1013.00
2022-08-27T02:26:15.591Z,1013.01
2022-08-27T02:27:15.551Z,1012.95
2022-08-27T02:28:15.504Z,1012.98
2022-08-27T02:29:15.464Z,1012.94
2022-08-27T02:30:15.416Z,1012.92
2022-08-27T02:31:15.420Z,1012.91
2022-08-27T02:32:22.503Z,1012.96
2022-08-27T02:33:15.289Z,1012.98
2022-08-27T02:34:15.241Z,1012.92
2022-08-27T02:35:15.201Z,1012.90
2022-08-27T02:36:15.155Z,1012.90
2022-08-27T02:37:15.117Z,1012.92
2022-08-27T02:38:15.066Z,1012.92
2022-08-27T02:39:15.025Z,1012.89
2022-08-27T02:40:15.038Z,1012.92
2022-08-27T02:41:14.937Z,1012.87
2022-08-27T02:42:14.896Z,1012.91
2022-08-27T02:43:16.058Z,1012.86
2022-08-27T02:44:14.811Z,1012.92
2022-08-27T02:45:14.764Z,1012.91
2022-08-27T02:46:14.765Z,1012.92
2022-08-27T02:47:14.677Z,1012.88
2022-08-27T02:48:14.631Z,1012.88
2022-08-27T02:49:14.589Z,1012.89
2022-08-27T02:50:14.544Z,1012.91
2022-08-27T02:51:14.504Z,1012.85
2022-08-27T02:52:14.457Z,1012.87
2022-08-27T02:53:14.416Z,1012.90
2022-08-27T02:54:14.371Z,1012.90
2022-08-27T02:55:14.330Z,1012.90
2022-08-27T02:56:14.282Z,1012.90
2022-08-27T02:57:14.240Z,1012.84
2022-08-27T02:58:14.198Z,1012.84
2022-08-27T02:59:14.153Z,1012.85
2022-08-27T03:00:14.106Z,1012.87
2022-08-27T03:01:14.068Z,1012.87
2022-08-27T03:03:13.979Z,1012.92
2022-08-27T03:04:13.937Z,1012.89
2022-08-27T03:05:13.892Z,1012.87
2022-08-27T03:06:13.849Z,1012.86
2022-08-27T03:07:18.994Z,1012.93
2022-08-27T03:08:13.759Z,1012.86
2022-08-27T03:09:13.716Z,1012.91
2022-08-27T03:10:13.673Z,1012.92
2022-08-27T03:11:13.628Z,1012.94
2022-08-27T03:12:13.586Z,1012.87
2022-08-27T03:13:13.555Z,1012.88
2022-08-27T03:14:13.500Z,1012.81
2022-08-27T03:15:13.457Z,1012.85
2022-08-27T03:16:13.456Z,1012.88
2022-08-27T03:17:13.364Z,1012.84
2022-08-27T03:18:13.323Z,1012.79
2022-08-27T03:19:13.280Z,1012.82
2022-08-27T03:20:13.239Z,1012.80
2022-08-27T03:21:13.191Z,1012.79
2022-08-27T03:22:13.149Z,1012.80
2022-08-27T03:23:13.104Z,1012.79
2022-08-27T03:24:14.790Z,1012.79
2022-08-27T03:25:13.021Z,1012.81
2022-08-27T03:26:12.974Z,1012.76
2022-08-27T03:27:12.930Z,1012.80
2022-08-27T03:28:23.115Z,1012.81
2022-08-27T03:29:12.841Z,1012.82
2022-08-27T03:30:12.799Z,1012.80
2022-08-27T03:31:12.834Z,1012.82
2022-08-27T03:32:12.715Z,1012.85
2022-08-27T03:33:12.665Z,1012.83
2022-08-27T03:34:12.625Z,1012.84
2022-08-27T03:35:12.579Z,1012.86
2022-08-27T03:36:12.538Z,1012.86
2022-08-27T03:37:12.508Z,1012.83
2022-08-27T03:38:12.450Z,1012.87
2022-08-27T03:39:12.405Z,1012.88
2022-08-27T03:40:13.438Z,1012.91
2022-08-27T03:41:12.316Z,1012.89
2022-08-27T03:42:12.276Z,1012.85
2022-08-27T03:43:12.231Z,1012.91
2022-08-27T03:44:12.188Z,1012.88
2022-08-27T03:45:12.146Z,1012.90
2022-08-27T03:46:12.120Z,1012.89
2022-08-27T03:47:12.059Z,1012.89
2022-08-27T03:48:12.020Z,1012.92
2022-08-27T03:49:13.375Z,1012.87
2022-08-27T03:50:11.927Z,1012.87
2022-08-27T03:51:11.880Z,1012.90
2022-08-27T03:52:11.839Z,1012.86
2022-08-27T03:53:11.794Z,1012.89
2022-08-27T03:55:11.716Z,1012.89
2022-08-27T03:56:11.665Z,1012.87
2022-08-27T03:57:11.619Z,1012.88
2022-08-27T03:58:11.894Z,1012.85
2022-08-27T03:59:11.535Z,1012.90
2022-08-27T04:00:11.492Z,1012.90
2022-08-27T04:01:11.444Z,1012.92
2022-08-27T04:02:11.499Z,1012.93
2022-08-27T04:03:11.449Z,1012.89
2022-08-27T04:04:11.318Z,1012.92
2022-08-27T04:05:11.270Z,1012.89
2022-08-27T04:06:11.226Z,1012.90
2022-08-27T04:07:11.184Z,1012.93
2022-08-27T04:08:11.292Z,1012.93
2022-08-27T04:09:11.098Z,1012.96
2022-08-27T04:10:11.053Z,1012.94
2022-08-27T04:11:11.012Z,1012.94
2022-08-27T04:12:10.966Z,1012.97
2022-08-27T04:13:10.917Z,1012.95
2022-08-27T04:14:20.747Z,1012.92
2022-08-27T04:15:10.833Z,1012.92
2022-08-27T04:16:10.845Z,1012.94
2022-08-27T04:17:10.745Z,1012.93
2022-08-27T04:18:10.848Z,1012.94
2022-08-27T04:19:10.657Z,1012.95
2022-08-27T04:20:33.827Z,1012.94
2022-08-27T04:21:10.569Z,1012.96
2022-08-27T04:22:10.528Z,1013.00
2022-08-27T04:23:10.490Z,1012.98
2022-08-27T04:24:10.441Z,1012.98
2022-08-27T04:25:11.576Z,1012.97
2022-08-27T04:26:10.354Z,1012.96
2022-08-27T04:27:10.308Z,1012.94
2022-08-27T04:28:10.410Z,1012.92
2022-08-27T04:29:10.226Z,1012.94
2022-08-27T04:30:10.176Z,1012.93
2022-08-27T04:31:16.614Z,1012.94
2022-08-27T04:32:10.091Z,1012.94
2022-08-27T04:33:10.042Z,1012.98
2022-08-27T04:34:10.002Z,1012.93
2022-08-27T04:35:09.960Z,1012.96
2022-08-27T04:36:09.931Z,1012.93
2022-08-27T04:37:09.868Z,1012.99
2022-08-27T04:38:10.076Z,1012.95
2022-08-27T04:39:09.783Z,1012.98
2022-08-27T04:40:09.862Z,1012.98
2022-08-27T04:41:09.694Z,1012.98
2022-08-27T04:42:09.651Z,1013.00
2022-08-27T04:43:09.606Z,1013.00
2022-08-27T04:44:09.565Z,1013.04
2022-08-27T04:45:09.518Z,1012.99
2022-08-27T04:46:09.528Z,1013.03
2022-08-27T04:47:09.431Z,1013.05
2022-08-27T04:48:09.588Z,1013.00
2022-08-27T04:49:10.097Z,1013.04
2022-08-27T04:50:09.302Z,1013.02
2022-08-27T04:51:09.256Z,1013.03
2022-08-27T04:52:09.215Z,1013.05
2022-08-27T04:53:09.169Z,1013.07
2022-08-27T04:54:09.125Z,1013.04
2022-08-27T04:55:09.083Z,1013.08
2022-08-27T04:56:14.283Z,1013.04
2022-08-27T04:57:08.992Z,1013.10
2022-08-27T04:58:08.966Z,1013.06
2022-08-27T04:59:08.908Z,1013.10
2022-08-27T05:00:08.866Z,1013.09
2022-08-27T05:01:08.842Z,1013.10
2022-08-27T05:02:08.776Z,1013.09
2022-08-27T05:03:08.732Z,1013.11
2022-08-27T05:04:08.691Z,1013.12
2022-08-27T05:05:11.132Z,1013.13
2022-08-27T05:06:08.602Z,1013.15
2022-08-27T05:07:08.556Z,1013.13
2022-08-27T05:08:08.556Z,1013.11
2022-08-27T05:09:08.469Z,1013.14
2022-08-27T05:10:08.425Z,1013.13
2022-08-27T05:11:08.381Z,1013.12
2022-08-27T05:12:08.339Z,1013.14
2022-08-27T05:13:08.298Z,1013.08
2022-08-27T05:14:08.255Z,1013.11
2022-08-27T05:15:08.214Z,1013.12
2022-08-27T05:16:08.244Z,1013.12
2022-08-27T05:17:08.119Z,1013.14
2022-08-27T05:18:08.134Z,1013.11
2022-08-27T05:19:08.032Z,1013.09
2022-08-27T05:20:07.990Z,1013.12
2022-08-27T05:21:07.943Z,1013.11
2022-08-27T05:22:07.902Z,1013.14
2022-08-27T05:23:07.859Z,1013.12
2022-08-27T05:24:07.818Z,1013.15
2022-08-27T05:25:07.778Z,1013.15
2022-08-27T05:26:07.726Z,1013.16
2022-08-27T05:27:07.683Z,1013.16
2022-08-27T05:28:07.694Z,1013.15
2022-08-27T05:29:07.594Z,1013.21
2022-08-27T05:30:07.552Z,1013.16
2022-08-27T05:31:07.555Z,1013.19
2022-08-27T05:32:07.465Z,1013.17
2022-08-27T05:33:07.419Z,1013.15
2022-08-27T05:34:10.406Z,1013.15
2022-08-27T05:35:07.334Z,1013.16
2022-08-27T05:36:07.292Z,1013.12
2022-08-27T05:37:07.245Z,1013.13
2022-08-27T05:38:07.258Z,1013.14
2022-08-27T05:39:07.159Z,1013.13
2022-08-27T05:40:07.150Z,1013.12
2022-08-27T05:41:07.073Z,1013.12
2022-08-27T05:42:07.031Z,1013.13
2022-08-27T05:43:06.983Z,1013.12
2022-08-27T05:44:24.117Z,1013.12
2022-08-27T05:45:06.893Z,1013.14
2022-08-27T05:46:06.927Z,1013.16
2022-08-27T05:47:06.807Z,1013.15
2022-08-27T05:48:06.769Z,1013.12
2022-08-27T05:49:06.722Z,1013.19
2022-08-27T05:50:06.680Z,1013.17
2022-08-27T05:51:06.632Z,1013.18
2022-08-27T05:52:06.590Z,1013.22
2022-08-27T05:53:06.545Z,1013.20
2022-08-27T05:54:08.761Z,1013.18
2022-08-27T05:55:06.458Z,1013.21
2022-08-27T05:56:06.416Z,1013.28
2022-08-27T05:57:06.372Z,1013.24
2022-08-27T05:58:06.328Z,1013.23
2022-08-27T05:59:06.281Z,1013.24
2022-08-27T06:00:06.242Z,1013.20
2022-08-27T06:01:10.125Z,1013.19
2022-08-27T06:02:06.359Z,1013.17
2022-08-27T06:03:06.108Z,1013.21
2022-08-27T06:04:06.110Z,1013.21
2022-08-27T06:05:06.105Z,1013.20
2022-08-27T06:06:05.979Z,1013.17
2022-08-27T06:07:05.932Z,1013.17
2022-08-27T06:08:05.891Z,1013.22
2022-08-27T06:09:05.848Z,1013.22
2022-08-27T06:10:05.805Z,1013.22
2022-08-27T06:11:05.761Z,1013.27
2022-08-27T06:12:05.730Z,1013.25
2022-08-27T06:13:05.671Z,1013.26
2022-08-27T06:14:05.628Z,1013.23
2022-08-27T06:15:05.585Z,1013.27
2022-08-27T06:16:06.643Z,1013.29
2022-08-27T06:17:05.494Z,1013.28
2022-08-27T06:19:05.413Z,1013.26
2022-08-27T06:20:05.367Z,1013.28
2022-08-27T06:21:05.322Z,1013.25
2022-08-27T06:22:10.276Z,1013.30
2022-08-27T06:23:05.236Z,1013.29
2022-08-27T06:24:05.189Z,1013.30
2022-08-27T06:25:05.153Z,1013.37
2022-08-27T06:26:05.102Z,1013.35
2022-08-27T06:27:05.671Z,1013.35
2022-08-27T06:28:05.016Z,1013.37
2022-08-27T06:29:04.973Z,1013.35
2022-08-27T06:30:04.943Z,1013.35
2022-08-27T06:31:04.932Z,1013.33
2022-08-27T06:32:04.841Z,1013.33
2022-08-27T06:33:04.801Z,1013.38
2022-08-27T06:34:07.615Z,1013.34
2022-08-27T06:35:04.712Z,1013.34
2022-08-27T06:36:04.666Z,1013.34
2022-08-27T06:37:04.624Z,1013.36
2022-08-27T06:38:04.579Z,1013.34
2022-08-27T06:39:04.538Z,1013.32
2022-08-27T06:40:04.549Z,1013.36
2022-08-27T06:41:04.449Z,1013.37
2022-08-27T06:42:04.405Z,1013.35
2022-08-27T06:43:04.366Z,1013.36
2022-08-27T06:44:04.316Z,1013.34
2022-08-27T06:45:04.275Z,1013.32
2022-08-27T06:46:04.277Z,1013.30
2022-08-27T06:47:04.186Z,1013.30
2022-08-27T06:48:04.203Z,1013.32
2022-08-27T06:49:04.102Z,1013.30
2022-08-27T06:50:04.055Z,1013.30
2022-08-27T06:51:04.014Z,1013.32
2022-08-27T06:52:03.967Z,1013.33
2022-08-27T06:53:03.924Z,1013.35
2022-08-27T06:54:03.882Z,1013.34
2022-08-27T06:55:03.840Z,1013.36
2022-08-27T06:56:03.793Z,1013.38
2022-08-27T06:57:03.750Z,1013.34
2022-08-27T06:58:03.764Z,1013.37
2022-08-27T06:59:03.669Z,1013.37
2022-08-27T07:00:03.621Z,1013.37
2022-08-27T07:01:03.653Z,1013.38
2022-08-27T07:02:03.531Z,1013.35
2022-08-27T07:03:03.489Z,1013.36
2022-08-27T07:04:03.446Z,1013.37
2022-08-27T07:05:03.402Z,1013.37
2022-08-27T07:06:03.358Z,1013.35
2022-08-27T07:07:03.315Z,1013.37
2022-08-27T07:08:03.273Z,1013.37
2022-08-27T07:09:03.233Z,1013.37
2022-08-27T07:10:04.181Z,1013.38
2022-08-27T07:12:03.103Z,1013.36
2022-08-27T07:13:03.054Z,1013.36
2022-08-27T07:14:03.011Z,1013.35
2022-08-27T07:15:02.971Z,1013.37
2022-08-27T07:16:03.208Z,1013.39
2022-08-27T07:17:02.895Z,1013.37
2022-08-27T07:18:02.843Z,1013.35
2022-08-27T07:19:04.220Z,1013.36
2022-08-27T07:20:02.765Z,1013.36
2022-08-27T07:21:02.708Z,1013.34
2022-08-27T07:22:02.668Z,1013.37
2022-08-27T07:23:02.620Z,1013.35
2022-08-27T07:24:02.581Z,1013.35
2022-08-27T07:25:02.535Z,1013.34
2022-08-27T07:26:02.493Z,1013.36
2022-08-27T07:27:02.446Z,1013.37
2022-08-27T07:28:02.406Z,1013.38
2022-08-27T07:29:02.360Z,1013.34
2022-08-27T07:30:02.321Z,1013.33
2022-08-27T07:31:02.384Z,1013.33
2022-08-27T07:32:02.233Z,1013.34
2022-08-27T07:33:02.185Z,1013.29
2022-08-27T07:34:02.145Z,1013.32
2022-08-27T07:35:02.106Z,1013.32
2022-08-27T07:36:02.117Z,1013.33
2022-08-27T07:37:02.014Z,1013.32
2022-08-27T07:38:01.973Z,1013.35
2022-08-27T07:39:02.270Z,1013.35
2022-08-27T07:40:01.930Z,1013.36
2022-08-27T07:41:01.843Z,1013.37
2022-08-27T07:42:01.800Z,1013.41
2022-08-27T07:43:01.755Z,1013.41
2022-08-27T07:44:01.714Z,1013.38
2022-08-27T07:45:01.669Z,1013.38
2022-08-27T07:46:01.670Z,1013.39
2022-08-27T07:47:01.580Z,1013.39
2022-08-27T07:48:01.542Z,1013.42
2022-08-27T07:49:01.498Z,1013.42
2022-08-27T07:50:01.455Z,1013.40
2022-08-27T07:51:01.409Z,1013.42
2022-08-27T07:52:01.371Z,1013.44
2022-08-27T07:53:01.323Z,1013.45
2022-08-27T07:54:01.279Z,1013.44
2022-08-27T07:55:01.239Z,1013.42
2022-08-27T07:56:01.195Z,1013.47
2022-08-27T07:57:01.149Z,1013.49
2022-08-27T07:58:01.109Z,1013.44
2022-08-27T07:59:01.064Z,1013.45
2022-08-27T08:00:01.021Z,1013.48
2022-08-27T08:01:01.036Z,1013.46
2022-08-27T08:02:00.937Z,1013.48
2022-08-27T08:03:00.892Z,1013.45
2022-08-27T08:04:00.848Z,1013.46
2022-08-27T08:05:00.801Z,1013.47
2022-08-27T08:06:00.763Z,1013.50
2022-08-27T08:07:00.727Z,1013.47
2022-08-27T08:08:00.676Z,1013.50
2022-08-27T08:09:00.630Z,1013.47
2022-08-27T08:10:00.589Z,1013.48
2022-08-27T08:11:00.544Z,1013.52
2022-08-27T08:12:00.500Z,1013.56
2022-08-27T08:13:00.461Z,1013.50
2022-08-27T08:14:00.414Z,1013.54
2022-08-27T08:15:00.373Z,1013.55
2022-08-27T08:16:00.327Z,1013.60
2022-08-27T08:17:00.364Z,1013.58
2022-08-27T08:18:00.243Z,1013.55
2022-08-27T08:19:00.235Z,1013.61
2022-08-27T08:20:18.576Z,1013.57
2022-08-27T08:21:00.237Z,1013.62
2022-08-27T08:22:04.835Z,1013.63
2022-08-27T08:23:00.030Z,1013.62
2022-08-27T08:23:59.982Z,1013.64
2022-08-27T08:24:59.941Z,1013.63
2022-08-27T08:25:59.895Z,1013.65
2022-08-27T08:27:02.751Z,1013.68
2022-08-27T08:28:00.283Z,1013.69
2022-08-27T08:28:59.770Z,1013.66
2022-08-27T08:29:59.726Z,1013.68
2022-08-27T08:30:59.748Z,1013.67
2022-08-27T08:31:59.639Z,1013.67
2022-08-27T08:32:59.595Z,1013.69
2022-08-27T08:33:59.553Z,1013.69
2022-08-27T08:34:59.511Z,1013.71
2022-08-27T08:35:59.466Z,1013.72
2022-08-27T08:36:59.426Z,1013.70
2022-08-27T08:37:59.379Z,1013.71
2022-08-27T08:38:59.338Z,1013.76
2022-08-27T08:39:59.347Z,1013.75
2022-08-27T08:40:59.251Z,1013.76
2022-08-27T08:41:59.214Z,1013.72
2022-08-27T08:42:59.170Z,1013.74
2022-08-27T08:44:02.213Z,1013.75
2022-08-27T08:44:59.079Z,1013.79
2022-08-27T08:45:59.092Z,1013.76
2022-08-27T08:46:58.993Z,1013.76
2022-08-27T08:47:58.953Z,1013.79
2022-08-27T08:48:58.907Z,1013.74
2022-08-27T08:49:58.864Z,1013.75
2022-08-27T08:50:58.833Z,1013.72
2022-08-27T08:51:58.777Z,1013.74
2022-08-27T08:52:58.736Z,1013.77
2022-08-27T08:53:58.690Z,1013.77
2022-08-27T08:54:58.660Z,1013.76
2022-08-27T08:55:58.605Z,1013.74
2022-08-27T08:56:58.562Z,1013.77
2022-08-27T08:57:58.520Z,1013.78
2022-08-27T08:58:58.478Z,1013.76
2022-08-27T08:59:58.433Z,1013.76
2022-08-27T09:00:58.448Z,1013.80
2022-08-27T09:01:58.346Z,1013.78
2022-08-27T09:02:58.306Z,1013.82
2022-08-27T09:03:58.364Z,1013.82
2022-08-27T09:04:58.220Z,1013.81
2022-08-27T09:05:58.175Z,1013.78
2022-08-27T09:06:58.134Z,1013.81
2022-08-27T09:08:15.102Z,1013.82
2022-08-27T09:09:58.006Z,1013.79
2022-08-27T09:10:57.961Z,1013.84
2022-08-27T09:11:57.918Z,1013.84
2022-08-27T09:12:57.873Z,1013.85
2022-08-27T09:13:57.837Z,1013.85
2022-08-27T09:14:57.790Z,1013.85
2022-08-27T09:15:57.751Z,1013.84
2022-08-27T09:16:57.729Z,1013.83
2022-08-27T09:17:57.663Z,1013.84
2022-08-27T09:18:57.621Z,1013.86
2022-08-27T09:19:57.579Z,1013.86
2022-08-27T09:20:57.535Z,1013.86
2022-08-27T09:21:57.493Z,1013.88
2022-08-27T09:22:57.449Z,1013.89
2022-08-27T09:23:57.406Z,1013.88
2022-08-27T09:24:57.362Z,1013.88
2022-08-27T09:25:57.322Z,1013.92
2022-08-27T09:26:57.279Z,1013.92
2022-08-27T09:27:57.238Z,1013.92
2022-08-27T09:28:57.195Z,1013.93
2022-08-27T09:29:57.150Z,1013.89
2022-08-27T09:30:57.187Z,1013.96
2022-08-27T09:31:57.064Z,1013.98
2022-08-27T09:32:57.022Z,1013.91
2022-08-27T09:33:57.277Z,1013.92
2022-08-27T09:34:56.940Z,1013.91
2022-08-27T09:35:56.895Z,1013.87
2022-08-27T09:36:56.863Z,1013.86
2022-08-27T09:37:56.809Z,1013.86
2022-08-27T09:38:58.337Z,1013.90
2022-08-27T09:39:56.843Z,1013.86
2022-08-27T09:40:56.679Z,1013.89
2022-08-27T09:41:56.639Z,1013.90
2022-08-27T09:42:56.594Z,1013.90
2022-08-27T09:43:56.557Z,1013.89
2022-08-27T09:44:56.512Z,1013.88
2022-08-27T09:45:56.520Z,1013.88
2022-08-27T09:46:56.426Z,1013.89
2022-08-27T09:47:56.385Z,1013.91
2022-08-27T09:48:56.338Z,1013.85
2022-08-27T09:49:56.300Z,1013.84
2022-08-27T09:50:56.256Z,1013.85
2022-08-27T09:51:56.217Z,1013.82
2022-08-27T09:52:56.175Z,1013.83
2022-08-27T09:53:56.129Z,1013.84
2022-08-27T09:54:56.085Z,1013.81
2022-08-27T09:55:56.044Z,1013.76
2022-08-27T09:56:56.000Z,1013.80
2022-08-27T09:57:55.962Z,1013.78
2022-08-27T09:58:55.917Z,1013.79
2022-08-27T09:59:55.877Z,1013.78
2022-08-27T10:00:55.888Z,1013.79
2022-08-27T10:01:55.792Z,1013.79
2022-08-27T10:02:55.749Z,1013.77
2022-08-27T10:03:55.759Z,1013.74
2022-08-27T10:04:55.670Z,1013.80
2022-08-27T10:05:55.624Z,1013.76
2022-08-27T10:06:55.586Z,1013.74
2022-08-27T10:07:55.537Z,1013.73
2022-08-27T10:08:55.495Z,1013.76
2022-08-27T10:09:55.452Z,1013.76
2022-08-27T10:10:55.407Z,1013.78
2022-08-27T10:11:55.367Z,1013.80
2022-08-27T10:12:55.351Z,1013.78
2022-08-27T10:13:55.285Z,1013.80
2022-08-27T10:14:55.242Z,1013.80
2022-08-27T10:15:55.204Z,1013.82
2022-08-27T10:16:55.234Z,1013.81
2022-08-27T10:17:55.125Z,1013.79
2022-08-27T10:18:55.073Z,1013.80
2022-08-27T10:19:55.031Z,1013.81
2022-08-27T10:20:54.984Z,1013.82
2022-08-27T10:21:54.944Z,1013.80
2022-08-27T10:22:54.904Z,1013.78
2022-08-27T10:23:54.861Z,1013.74
2022-08-27T10:24:54.820Z,1013.79
2022-08-27T10:25:54.777Z,1013.80
2022-08-27T10:26:54.735Z,1013.82
2022-08-27T10:27:54.692Z,1013.81
2022-08-27T10:28:54.647Z,1013.81
2022-08-27T10:29:54.645Z,1013.85
2022-08-27T10:30:54.566Z,1013.81
2022-08-27T10:31:54.583Z,1013.83
2022-08-27T10:32:55.140Z,1013.83
2022-08-27T10:33:54.440Z,1013.82
2022-08-27T10:34:54.396Z,1013.80
2022-08-27T10:35:55.076Z,1013.84
2022-08-27T10:36:54.313Z,1013.84
2022-08-27T10:37:54.270Z,1013.82
2022-08-27T10:38:54.228Z,1013.80
2022-08-27T10:39:54.226Z,1013.81
2022-08-27T10:40:54.144Z,1013.81
2022-08-27T10:41:54.105Z,1013.79
2022-08-27T10:42:57.625Z,1013.78
2022-08-27T10:43:54.022Z,1013.76
2022-08-27T10:44:53.978Z,1013.77
2022-08-27T10:45:53.961Z,1013.78
2022-08-27T10:46:53.892Z,1013.76
2022-08-27T10:47:53.858Z,1013.80
2022-08-27T10:48:53.807Z,1013.68
2022-08-27T10:49:53.778Z,1013.73
2022-08-27T10:50:53.724Z,1013.67
2022-08-27T10:51:53.684Z,1013.70
2022-08-27T10:52:53.640Z,1013.67
2022-08-27T10:53:53.600Z,1013.68
2022-08-27T10:54:53.563Z,1013.68
2022-08-27T10:55:53.519Z,1013.66
2022-08-27T10:57:08.468Z,1013.69
2022-08-27T10:58:00.141Z,1013.69
2022-08-27T10:58:53.389Z,1013.68
2022-08-27T10:59:53.360Z,1013.63
2022-08-27T11:00:53.356Z,1013.67
2022-08-27T11:01:53.320Z,1013.65
2022-08-27T11:02:53.226Z,1013.67
2022-08-27T11:03:53.181Z,1013.65
2022-08-27T11:04:53.139Z,1013.66
2022-08-27T11:05:53.099Z,1013.66
2022-08-27T11:06:53.061Z,1013.66
2022-08-27T11:07:53.018Z,1013.68
2022-08-27T11:08:52.971Z,1013.64
2022-08-27T11:09:56.840Z,1013.63
2022-08-27T11:10:52.891Z,1013.63
2022-08-27T11:12:52.807Z,1013.62
2022-08-27T11:13:52.764Z,1013.59
2022-08-27T11:14:52.723Z,1013.64
2022-08-27T11:15:52.682Z,1013.60
2022-08-27T11:16:52.721Z,1013.58
2022-08-27T11:17:52.599Z,1013.57
2022-08-27T11:18:52.558Z,1013.59
2022-08-27T11:19:54.352Z,1013.61
2022-08-27T11:20:52.475Z,1013.59
2022-08-27T11:21:52.438Z,1013.66
2022-08-27T11:22:52.391Z,1013.62
2022-08-27T11:23:52.352Z,1013.63
2022-08-27T11:24:52.307Z,1013.61
2022-08-27T11:25:52.272Z,1013.64
2022-08-27T11:26:52.227Z,1013.64
2022-08-27T11:27:52.187Z,1013.65
2022-08-27T11:28:52.146Z,1013.65
2022-08-27T11:29:52.102Z,1013.69
2022-08-27T11:30:52.061Z,1013.67
2022-08-27T11:31:52.086Z,1013.65
2022-08-27T11:32:51.979Z,1013.67
2022-08-27T11:33:51.937Z,1013.63
2022-08-27T11:34:51.898Z,1013.67
2022-08-27T11:35:51.861Z,1013.68
2022-08-27T11:36:54.224Z,1013.64
2022-08-27T11:37:51.771Z,1013.64
2022-08-27T11:38:51.731Z,1013.66
2022-08-27T11:39:52.107Z,1013.65
2022-08-27T11:40:51.647Z,1013.66
2022-08-27T11:41:51.610Z,1013.67
2022-08-27T11:42:51.564Z,1013.65
2022-08-27T11:43:51.524Z,1013.64
2022-08-27T11:44:51.486Z,1013.68
2022-08-27T11:45:51.490Z,1013.59
2022-08-27T11:46:51.410Z,1013.68
2022-08-27T11:47:51.356Z,1013.63
2022-08-27T11:48:51.337Z,1013.66
2022-08-27T11:49:51.274Z,1013.65
2022-08-27T11:50:51.232Z,1013.67
2022-08-27T11:51:51.190Z,1013.63
2022-08-27T11:52:51.148Z,1013.67
2022-08-27T11:53:52.706Z,1013.67
2022-08-27T11:54:51.066Z,1013.64
2022-08-27T11:55:51.024Z,1013.65
2022-08-27T11:56:50.980Z,1013.65
2022-08-27T11:57:50.940Z,1013.64
2022-08-27T11:58:52.628Z,1013.64
2022-08-27T11:59:50.859Z,1013.65
2022-08-27T12:00:50.814Z,1013.65
2022-08-27T12:01:50.773Z,1013.64
2022-08-27T12:02:50.729Z,1013.65
2022-08-27T12:03:50.839Z,1013.66
2022-08-27T12:04:50.648Z,1013.67
2022-08-27T12:05:50.608Z,1013.65
2022-08-27T12:06:50.565Z,1013.65
2022-08-27T12:07:50.524Z,1013.67
2022-08-27T12:08:50.482Z,1013.66
2022-08-27T12:09:50.443Z,1013.70
2022-08-27T12:10:50.397Z,1013.68
2022-08-27T12:11:53.505Z,1013.67